ESST/TYF METAR and TAF weather

Enter ICAO airport designator
Station Type Date Time Source
ESST METAR 2020/01/22 12:20 UTC NOAA

ESST 221220Z AUTO 30011KT 9999 NCD 04/M05 Q1025


Station Type Date Time Source
ESST Decoded METAR 2020/01/22 12:20 UTC NOAA

Station name not available
Jan 22, 2020 - 07:20 AM EST / 2020.01.22 1220 UTC
Wind: from the WNW (300 degrees) at 13 MPH (11 KT):0
Visibility: greater than 7 mile(s):0
Temperature: 39 F (4 C)
Dew Point: 23 F (-5 C)
Relative Humidity: 51%
Pressure (altimeter): 30.27 in. Hg (1025 hPa)
ob: ESST 221220Z AUTO 30011KT 9999 NCD 04/M05 Q1025
cycle: 12

Station Type Date Time Source
ESST TAF UTC NOAA

Error!

Example: see airport list